sensor_id;sensor_type;location;lat;lon;timestamp;P1;durP1;ratioP1;P2;durP2;ratioP2
23121;SDS011;11730;51.248;22.534;2023-02-01T00:02:26;21.83;;;12.68;;
23121;SDS011;11730;51.248;22.534;2023-02-01T00:04:53;18.25;;;10.75;;
23121;SDS011;11730;51.248;22.534;2023-02-01T00:07:20;28.45;;;10.77;;
23121;SDS011;11730;51.248;22.534;2023-02-01T00:09:47;18.13;;;11.65;;
23121;SDS011;11730;51.248;22.534;2023-02-01T00:12:14;22.52;;;12.52;;
23121;SDS011;11730;51.248;22.534;2023-02-01T00:14:41;19.50;;;10.68;;
23121;SDS011;11730;51.248;22.534;2023-02-01T00:17:08;18.75;;;10.20;;
23121;SDS011;11730;51.248;22.534;2023-02-01T00:19:35;19.50;;;11.25;;
23121;SDS011;11730;51.248;22.534;2023-02-01T00:22:03;15.75;;;9.43;;
23121;SDS011;11730;51.248;22.534;2023-02-01T00:24:29;15.65;;;9.95;;
23121;SDS011;11730;51.248;22.534;2023-02-01T00:26:56;19.15;;;10.73;;
23121;SDS011;11730;51.248;22.534;2023-02-01T00:29:23;16.38;;;10.85;;
23121;SDS011;11730;51.248;22.534;2023-02-01T00:31:51;15.32;;;8.63;;
23121;SDS011;11730;51.248;22.534;2023-02-01T00:34:18;13.55;;;8.77;;
23121;SDS011;11730;51.248;22.534;2023-02-01T00:36:46;18.15;;;10.75;;
23121;SDS011;11730;51.248;22.534;2023-02-01T00:39:13;17.65;;;10.65;;
23121;SDS011;11730;51.248;22.534;2023-02-01T00:41:41;13.80;;;10.20;;
23121;SDS011;11730;51.248;22.534;2023-02-01T00:44:08;17.98;;;9.95;;
23121;SDS011;11730;51.248;22.534;2023-02-01T00:46:35;11.40;;;8.15;;
23121;SDS011;11730;51.248;22.534;2023-02-01T00:49:03;12.25;;;8.88;;
23121;SDS011;11730;51.248;22.534;2023-02-01T00:51:30;12.73;;;9.02;;
23121;SDS011;11730;51.248;22.534;2023-02-01T00:53:57;16.65;;;10.23;;
23121;SDS011;11730;51.248;22.534;2023-02-01T00:56:24;15.77;;;9.88;;
23121;SDS011;11730;51.248;22.534;2023-02-01T00:58:53;14.35;;;9.20;;
23121;SDS011;11730;51.248;22.534;2023-02-01T01:01:25;14.73;;;9.65;;
23121;SDS011;11730;51.248;22.534;2023-02-01T01:03:54;17.77;;;9.53;;
23121;SDS011;11730;51.248;22.534;2023-02-01T01:06:28;14.80;;;9.18;;
23121;SDS011;11730;51.248;22.534;2023-02-01T01:08:58;15.90;;;8.50;;
23121;SDS011;11730;51.248;22.534;2023-02-01T01:11:27;13.05;;;8.48;;
23121;SDS011;11730;51.248;22.534;2023-02-01T01:13:55;11.50;;;8.48;;
23121;SDS011;11730;51.248;22.534;2023-02-01T01:16:22;14.30;;;9.02;;
23121;SDS011;11730;51.248;22.534;2023-02-01T01:18:50;16.58;;;10.65;;
23121;SDS011;11730;51.248;22.534;2023-02-01T01:21:17;10.52;;;8.00;;
23121;SDS011;11730;51.248;22.534;2023-02-01T01:23:46;17.58;;;10.52;;
23121;SDS011;11730;51.248;22.534;2023-02-01T01:26:14;15.57;;;9.93;;
23121;SDS011;11730;51.248;22.534;2023-02-01T01:28:43;15.20;;;9.05;;
23121;SDS011;11730;51.248;22.534;2023-02-01T01:31:10;14.98;;;9.45;;
23121;SDS011;11730;51.248;22.534;2023-02-01T01:33:38;14.02;;;9.40;;
23121;SDS011;11730;51.248;22.534;2023-02-01T01:36:06;14.05;;;9.65;;
23121;SDS011;11730;51.248;22.534;2023-02-01T01:38:36;14.90;;;7.25;;
23121;SDS011;11730;51.248;22.534;2023-02-01T01:41:03;12.77;;;8.57;;
23121;SDS011;11730;51.248;22.534;2023-02-01T01:48:57;14.20;;;9.68;;
23121;SDS011;11730;51.248;22.534;2023-02-01T01:51:26;12.27;;;7.88;;
23121;SDS011;11730;51.248;22.534;2023-02-01T01:54:42;13.77;;;8.60;;
23121;SDS011;11730;51.248;22.534;2023-02-01T01:56:43;14.75;;;8.52;;
23121;SDS011;11730;51.248;22.534;2023-02-01T01:59:17;8.15;;;6.47;;
23121;SDS011;11730;51.248;22.534;2023-02-01T02:01:45;12.70;;;8.60;;
23121;SDS011;11730;51.248;22.534;2023-02-01T02:04:13;12.32;;;7.55;;
23121;SDS011;11730;51.248;22.534;2023-02-01T02:11:38;6.32;;;4.53;;
23121;SDS011;11730;51.248;22.534;2023-02-01T02:14:06;8.02;;;4.20;;
23121;SDS011;11730;51.248;22.534;2023-02-01T02:16:46;8.07;;;5.50;;
23121;SDS011;11730;51.248;22.534;2023-02-01T02:27:19;12.13;;;6.15;;
23121;SDS011;11730;51.248;22.534;2023-02-01T02:33:18;7.53;;;5.78;;
23121;SDS011;11730;51.248;22.534;2023-02-01T02:39:23;6.70;;;4.93;;
23121;SDS011;11730;51.248;22.534;2023-02-01T02:41:59;6.80;;;5.85;;
23121;SDS011;11730;51.248;22.534;2023-02-01T02:44:57;7.13;;;5.15;;
23121;SDS011;11730;51.248;22.534;2023-02-01T02:50:37;8.25;;;5.57;;
23121;SDS011;11730;51.248;22.534;2023-02-01T02:56:21;9.32;;;5.10;;
23121;SDS011;11730;51.248;22.534;2023-02-01T02:59:08;7.63;;;5.70;;
23121;SDS011;11730;51.248;22.534;2023-02-01T03:01:57;11.48;;;5.75;;
23121;SDS011;11730;51.248;22.534;2023-02-01T03:04:43;6.18;;;4.70;;
23121;SDS011;11730;51.248;22.534;2023-02-01T03:07:14;8.90;;;5.13;;
23121;SDS011;11730;51.248;22.534;2023-02-01T03:09:59;5.70;;;4.15;;
23121;SDS011;11730;51.248;22.534;2023-02-01T03:12:32;6.95;;;4.60;;
23121;SDS011;11730;51.248;22.534;2023-02-01T03:15:23;8.07;;;4.32;;
23121;SDS011;11730;51.248;22.534;2023-02-01T03:20:57;5.10;;;3.45;;
23121;SDS011;11730;51.248;22.534;2023-02-01T03:23:30;7.40;;;4.50;;
23121;SDS011;11730;51.248;22.534;2023-02-01T03:26:01;5.40;;;3.70;;
23121;SDS011;11730;51.248;22.534;2023-02-01T03:28:29;3.83;;;3.53;;
23121;SDS011;11730;51.248;22.534;2023-02-01T03:30:59;10.60;;;3.83;;
23121;SDS011;11730;51.248;22.534;2023-02-01T03:33:27;7.88;;;3.60;;
23121;SDS011;11730;51.248;22.534;2023-02-01T03:46:52;9.27;;;4.13;;
23121;SDS011;11730;51.248;22.534;2023-02-01T03:49:27;6.32;;;3.95;;
23121;SDS011;11730;51.248;22.534;2023-02-01T03:52:00;5.60;;;3.88;;
23121;SDS011;11730;51.248;22.534;2023-02-01T03:54:30;6.97;;;3.45;;
23121;SDS011;11730;51.248;22.534;2023-02-01T03:56:59;4.05;;;3.13;;
23121;SDS011;11730;51.248;22.534;2023-02-01T03:59:28;12.63;;;3.90;;
23121;SDS011;11730;51.248;22.534;2023-02-01T04:01:56;7.85;;;3.45;;
23121;SDS011;11730;51.248;22.534;2023-02-01T04:04:23;4.50;;;2.97;;
23121;SDS011;11730;51.248;22.534;2023-02-01T04:06:50;6.38;;;3.60;;
23121;SDS011;11730;51.248;22.534;2023-02-01T04:09:17;4.82;;;3.33;;
23121;SDS011;11730;51.248;22.534;2023-02-01T04:11:45;9.30;;;3.72;;
23121;SDS011;11730;51.248;22.534;2023-02-01T04:14:12;6.10;;;4.20;;
23121;SDS011;11730;51.248;22.534;2023-02-01T04:16:39;13.45;;;3.65;;
23121;SDS011;11730;51.248;22.534;2023-02-01T04:19:06;8.23;;;3.72;;
23121;SDS011;11730;51.248;22.534;2023-02-01T04:21:34;7.93;;;3.20;;
23121;SDS011;11730;51.248;22.534;2023-02-01T04:24:01;5.32;;;3.10;;
23121;SDS011;11730;51.248;22.534;2023-02-01T04:26:28;9.23;;;3.55;;
23121;SDS011;11730;51.248;22.534;2023-02-01T04:28:55;5.53;;;2.80;;
23121;SDS011;11730;51.248;22.534;2023-02-01T04:31:23;5.47;;;3.03;;
23121;SDS011;11730;51.248;22.534;2023-02-01T04:33:54;8.90;;;3.35;;
23121;SDS011;11730;51.248;22.534;2023-02-01T04:36:23;9.57;;;3.17;;
23121;SDS011;11730;51.248;22.534;2023-02-01T04:38:50;6.45;;;2.85;;
23121;SDS011;11730;51.248;22.534;2023-02-01T04:41:18;4.38;;;2.67;;
23121;SDS011;11730;51.248;22.534;2023-02-01T04:43:46;6.90;;;3.47;;
23121;SDS011;11730;51.248;22.534;2023-02-01T04:46:13;11.20;;;3.13;;
23121;SDS011;11730;51.248;22.534;2023-02-01T04:48:41;7.28;;;3.17;;
23121;SDS011;11730;51.248;22.534;2023-02-01T04:51:09;4.63;;;3.20;;
23121;SDS011;11730;51.248;22.534;2023-02-01T04:53:36;6.50;;;3.28;;
23121;SDS011;11730;51.248;22.534;2023-02-01T04:56:04;5.00;;;2.67;;
23121;SDS011;11730;51.248;22.534;2023-02-01T04:58:32;14.23;;;3.92;;
23121;SDS011;11730;51.248;22.534;2023-02-01T05:01:01;5.53;;;3.13;;
23121;SDS011;11730;51.248;22.534;2023-02-01T05:03:34;5.10;;;3.00;;
23121;SDS011;11730;51.248;22.534;2023-02-01T05:06:01;6.72;;;3.63;;
23121;SDS011;11730;51.248;22.534;2023-02-01T05:08:31;18.98;;;3.25;;
23121;SDS011;11730;51.248;22.534;2023-02-01T05:10:58;6.55;;;3.08;;
23121;SDS011;11730;51.248;22.534;2023-02-01T05:13:28;7.63;;;3.33;;
23121;SDS011;11730;51.248;22.534;2023-02-01T05:16:14;11.13;;;3.35;;
23121;SDS011;11730;51.248;22.534;2023-02-01T05:18:42;5.32;;;2.60;;
23121;SDS011;11730;51.248;22.534;2023-02-01T05:21:08;17.67;;;3.97;;
23121;SDS011;11730;51.248;22.534;2023-02-01T05:23:36;9.45;;;4.15;;
23121;SDS011;11730;51.248;22.534;2023-02-01T05:26:23;11.63;;;3.58;;
23121;SDS011;11730;51.248;22.534;2023-02-01T05:28:50;13.65;;;3.85;;
23121;SDS011;11730;51.248;22.534;2023-02-01T05:31:17;7.82;;;3.95;;
23121;SDS011;11730;51.248;22.534;2023-02-01T05:33:44;8.68;;;3.85;;
23121;SDS011;11730;51.248;22.534;2023-02-01T05:36:12;13.07;;;5.28;;
23121;SDS011;11730;51.248;22.534;2023-02-01T05:38:39;9.98;;;4.00;;
23121;SDS011;11730;51.248;22.534;2023-02-01T05:41:06;11.57;;;4.45;;
23121;SDS011;11730;51.248;22.534;2023-02-01T05:43:33;10.65;;;4.38;;
23121;SDS011;11730;51.248;22.534;2023-02-01T05:46:00;11.75;;;4.28;;
23121;SDS011;11730;51.248;22.534;2023-02-01T05:48:27;11.20;;;4.20;;
23121;SDS011;11730;51.248;22.534;2023-02-01T05:50:54;8.75;;;3.58;;
23121;SDS011;11730;51.248;22.534;2023-02-01T05:53:21;5.25;;;3.13;;
23121;SDS011;11730;51.248;22.534;2023-02-01T05:55:49;9.35;;;4.20;;
23121;SDS011;11730;51.248;22.534;2023-02-01T05:58:16;9.18;;;3.72;;
23121;SDS011;11730;51.248;22.534;2023-02-01T06:00:42;9.43;;;4.38;;
23121;SDS011;11730;51.248;22.534;2023-02-01T06:03:10;9.95;;;3.97;;
23121;SDS011;11730;51.248;22.534;2023-02-01T06:05:37;13.65;;;3.80;;
23121;SDS011;11730;51.248;22.534;2023-02-01T06:08:05;10.43;;;4.28;;
23121;SDS011;11730;51.248;22.534;2023-02-01T06:10:34;11.63;;;4.28;;
23121;SDS011;11730;51.248;22.534;2023-02-01T06:13:01;6.93;;;3.50;;
23121;SDS011;11730;51.248;22.534;2023-02-01T06:15:29;10.93;;;5.65;;
23121;SDS011;11730;51.248;22.534;2023-02-01T06:17:57;13.02;;;4.32;;
23121;SDS011;11730;51.248;22.534;2023-02-01T06:20:24;16.85;;;4.03;;
23121;SDS011;11730;51.248;22.534;2023-02-01T06:22:51;14.32;;;4.18;;
23121;SDS011;11730;51.248;22.534;2023-02-01T06:25:18;7.50;;;4.05;;
23121;SDS011;11730;51.248;22.534;2023-02-01T06:27:47;12.35;;;3.65;;
23121;SDS011;11730;51.248;22.534;2023-02-01T06:30:14;14.38;;;3.50;;
23121;SDS011;11730;51.248;22.534;2023-02-01T06:32:41;10.32;;;4.38;;
23121;SDS011;11730;51.248;22.534;2023-02-01T06:35:09;10.07;;;4.53;;
23121;SDS011;11730;51.248;22.534;2023-02-01T06:37:42;11.18;;;4.55;;
23121;SDS011;11730;51.248;22.534;2023-02-01T06:40:09;21.00;;;4.90;;
23121;SDS011;11730;51.248;22.534;2023-02-01T06:42:37;18.52;;;4.72;;
23121;SDS011;11730;51.248;22.534;2023-02-01T06:45:04;9.85;;;3.60;;
23121;SDS011;11730;51.248;22.534;2023-02-01T06:47:32;11.48;;;4.40;;
23121;SDS011;11730;51.248;22.534;2023-02-01T06:50:00;14.48;;;4.35;;
23121;SDS011;11730;51.248;22.534;2023-02-01T06:52:27;14.20;;;3.92;;
23121;SDS011;11730;51.248;22.534;2023-02-01T06:54:54;9.48;;;4.43;;
23121;SDS011;11730;51.248;22.534;2023-02-01T06:57:21;17.38;;;5.18;;
23121;SDS011;11730;51.248;22.534;2023-02-01T06:59:49;17.55;;;4.40;;
23121;SDS011;11730;51.248;22.534;2023-02-01T07:02:16;7.63;;;3.67;;
23121;SDS011;11730;51.248;22.534;2023-02-01T07:04:43;17.13;;;4.50;;
23121;SDS011;11730;51.248;22.534;2023-02-01T07:07:10;7.75;;;3.55;;
23121;SDS011;11730;51.248;22.534;2023-02-01T07:09:38;10.15;;;4.32;;
23121;SDS011;11730;51.248;22.534;2023-02-01T07:12:05;17.45;;;4.25;;
23121;SDS011;11730;51.248;22.534;2023-02-01T07:14:32;16.38;;;3.67;;
23121;SDS011;11730;51.248;22.534;2023-02-01T07:16:59;20.50;;;4.13;;
23121;SDS011;11730;51.248;22.534;2023-02-01T07:19:26;24.23;;;4.05;;
23121;SDS011;11730;51.248;22.534;2023-02-01T07:21:53;10.15;;;4.22;;
23121;SDS011;11730;51.248;22.534;2023-02-01T07:24:20;17.58;;;4.47;;
23121;SDS011;11730;51.248;22.534;2023-02-01T07:26:47;23.02;;;5.10;;
23121;SDS011;11730;51.248;22.534;2023-02-01T07:29:15;11.27;;;4.00;;
23121;SDS011;11730;51.248;22.534;2023-02-01T07:31:41;24.50;;;5.30;;
23121;SDS011;11730;51.248;22.534;2023-02-01T07:34:09;9.45;;;4.03;;
23121;SDS011;11730;51.248;22.534;2023-02-01T07:36:36;16.65;;;3.67;;
23121;SDS011;11730;51.248;22.534;2023-02-01T07:39:03;10.82;;;3.47;;
23121;SDS011;11730;51.248;22.534;2023-02-01T07:41:30;9.40;;;3.85;;
23121;SDS011;11730;51.248;22.534;2023-02-01T07:43:57;5.50;;;3.33;;
23121;SDS011;11730;51.248;22.534;2023-02-01T07:46:24;9.82;;;4.18;;
23121;SDS011;11730;51.248;22.534;2023-02-01T07:48:52;12.30;;;5.15;;
23121;SDS011;11730;51.248;22.534;2023-02-01T07:51:19;16.10;;;4.68;;
23121;SDS011;11730;51.248;22.534;2023-02-01T07:53:46;15.75;;;4.40;;
23121;SDS011;11730;51.248;22.534;2023-02-01T07:56:14;15.02;;;4.00;;
23121;SDS011;11730;51.248;22.534;2023-02-01T07:58:46;7.03;;;3.28;;
23121;SDS011;11730;51.248;22.534;2023-02-01T08:01:17;10.05;;;3.75;;
23121;SDS011;11730;51.248;22.534;2023-02-01T08:03:47;8.07;;;3.80;;
23121;SDS011;11730;51.248;22.534;2023-02-01T08:06:15;14.57;;;3.90;;
23121;SDS011;11730;51.248;22.534;2023-02-01T08:08:43;14.18;;;3.75;;
23121;SDS011;11730;51.248;22.534;2023-02-01T08:11:11;12.48;;;3.58;;
23121;SDS011;11730;51.248;22.534;2023-02-01T08:13:39;13.75;;;3.85;;
23121;SDS011;11730;51.248;22.534;2023-02-01T08:16:07;10.95;;;3.90;;
23121;SDS011;11730;51.248;22.534;2023-02-01T08:18:35;14.25;;;4.47;;
23121;SDS011;11730;51.248;22.534;2023-02-01T08:23:43;13.20;;;4.13;;
23121;SDS011;11730;51.248;22.534;2023-02-01T08:28:45;9.07;;;3.63;;
23121;SDS011;11730;51.248;22.534;2023-02-01T08:31:14;12.70;;;3.58;;
23121;SDS011;11730;51.248;22.534;2023-02-01T08:33:43;7.40;;;3.15;;
23121;SDS011;11730;51.248;22.534;2023-02-01T08:36:14;9.52;;;3.15;;
23121;SDS011;11730;51.248;22.534;2023-02-01T08:38:40;9.88;;;3.58;;
23121;SDS011;11730;51.248;22.534;2023-02-01T08:41:09;7.45;;;3.05;;
23121;SDS011;11730;51.248;22.534;2023-02-01T08:43:38;8.13;;;3.38;;
23121;SDS011;11730;51.248;22.534;2023-02-01T08:46:05;7.07;;;2.75;;
23121;SDS011;11730;51.248;22.534;2023-02-01T08:48:33;10.70;;;3.47;;
23121;SDS011;11730;51.248;22.534;2023-02-01T08:51:01;23.95;;;7.20;;
23121;SDS011;11730;51.248;22.534;2023-02-01T08:53:29;8.98;;;3.67;;
23121;SDS011;11730;51.248;22.534;2023-02-01T08:55:56;11.45;;;3.25;;
23121;SDS011;11730;51.248;22.534;2023-02-01T08:58:23;10.27;;;3.58;;
23121;SDS011;11730;51.248;22.534;2023-02-01T09:00:50;10.77;;;4.40;;
23121;SDS011;11730;51.248;22.534;2023-02-01T09:03:18;13.35;;;3.55;;
23121;SDS011;11730;51.248;22.534;2023-02-01T09:05:45;10.80;;;3.38;;
23121;SDS011;11730;51.248;22.534;2023-02-01T09:08:15;14.93;;;3.47;;
23121;SDS011;11730;51.248;22.534;2023-02-01T09:10:42;17.25;;;4.50;;
23121;SDS011;11730;51.248;22.534;2023-02-01T09:13:10;9.13;;;3.30;;
23121;SDS011;11730;51.248;22.534;2023-02-01T09:15:37;14.73;;;4.22;;
23121;SDS011;11730;51.248;22.534;2023-02-01T09:18:04;8.20;;;2.78;;
23121;SDS011;11730;51.248;22.534;2023-02-01T09:20:32;15.02;;;4.05;;
23121;SDS011;11730;51.248;22.534;2023-02-01T09:22:59;7.72;;;3.05;;
23121;SDS011;11730;51.248;22.534;2023-02-01T09:25:26;16.65;;;3.95;;
23121;SDS011;11730;51.248;22.534;2023-02-01T09:27:54;19.05;;;5.90;;
23121;SDS011;11730;51.248;22.534;2023-02-01T09:30:22;11.27;;;3.80;;
23121;SDS011;11730;51.248;22.534;2023-02-01T09:32:49;9.70;;;4.03;;
23121;SDS011;11730;51.248;22.534;2023-02-01T09:35:17;20.08;;;4.55;;
23121;SDS011;11730;51.248;22.534;2023-02-01T09:37:44;19.52;;;4.15;;
23121;SDS011;11730;51.248;22.534;2023-02-01T09:40:13;17.42;;;4.07;;
23121;SDS011;11730;51.248;22.534;2023-02-01T09:47:59;13.98;;;3.72;;
23121;SDS011;11730;51.248;22.534;2023-02-01T09:50:37;12.00;;;3.72;;
23121;SDS011;11730;51.248;22.534;2023-02-01T09:53:15;14.38;;;3.05;;
23121;SDS011;11730;51.248;22.534;2023-02-01T09:55:49;13.80;;;2.90;;
23121;SDS011;11730;51.248;22.534;2023-02-01T09:58:25;13.02;;;3.75;;
23121;SDS011;11730;51.248;22.534;2023-02-01T10:01:23;15.65;;;3.35;;
23121;SDS011;11730;51.248;22.534;2023-02-01T10:04:01;11.55;;;3.28;;
23121;SDS011;11730;51.248;22.534;2023-02-01T10:06:33;8.50;;;3.38;;
23121;SDS011;11730;51.248;22.534;2023-02-01T10:09:44;7.13;;;3.30;;
23121;SDS011;11730;51.248;22.534;2023-02-01T10:12:37;11.98;;;3.03;;
23121;SDS011;11730;51.248;22.534;2023-02-01T10:18:25;18.98;;;4.40;;
23121;SDS011;11730;51.248;22.534;2023-02-01T10:21:09;12.23;;;3.90;;
23121;SDS011;11730;51.248;22.534;2023-02-01T10:24:18;13.77;;;4.00;;
23121;SDS011;11730;51.248;22.534;2023-02-01T10:27:07;13.27;;;4.07;;
23121;SDS011;11730;51.248;22.534;2023-02-01T10:29:41;10.18;;;3.88;;
23121;SDS011;11730;51.248;22.534;2023-02-01T10:32:16;24.42;;;4.55;;
23121;SDS011;11730;51.248;22.534;2023-02-01T10:34:50;10.52;;;3.55;;
23121;SDS011;11730;51.248;22.534;2023-02-01T10:37:30;14.90;;;4.00;;
23121;SDS011;11730;51.248;22.534;2023-02-01T10:40:02;15.70;;;3.95;;
23121;SDS011;11730;51.248;22.534;2023-02-01T10:42:36;12.75;;;4.10;;
23121;SDS011;11730;51.248;22.534;2023-02-01T10:45:03;14.25;;;4.55;;
23121;SDS011;11730;51.248;22.534;2023-02-01T10:47:31;30.13;;;11.43;;
23121;SDS011;11730;51.248;22.534;2023-02-01T10:50:11;16.00;;;3.95;;
23121;SDS011;11730;51.248;22.534;2023-02-01T10:55:57;11.00;;;4.15;;
23121;SDS011;11730;51.248;22.534;2023-02-01T10:58:28;11.63;;;3.53;;
23121;SDS011;11730;51.248;22.534;2023-02-01T11:01:03;8.65;;;3.65;;
23121;SDS011;11730;51.248;22.534;2023-02-01T11:09:18;12.50;;;3.90;;
23121;SDS011;11730;51.248;22.534;2023-02-01T11:14:19;14.88;;;4.57;;
23121;SDS011;11730;51.248;22.534;2023-02-01T11:19:21;10.27;;;3.10;;
23121;SDS011;11730;51.248;22.534;2023-02-01T11:21:55;7.38;;;3.13;;
23121;SDS011;11730;51.248;22.534;2023-02-01T11:24:25;6.97;;;3.22;;
23121;SDS011;11730;51.248;22.534;2023-02-01T11:26:59;18.70;;;3.17;;
23121;SDS011;11730;51.248;22.534;2023-02-01T11:29:35;11.82;;;3.92;;
23121;SDS011;11730;51.248;22.534;2023-02-01T11:32:05;11.50;;;3.97;;
23121;SDS011;11730;51.248;22.534;2023-02-01T11:34:42;9.05;;;2.95;;
23121;SDS011;11730;51.248;22.534;2023-02-01T11:37:17;20.02;;;4.10;;
23121;SDS011;11730;51.248;22.534;2023-02-01T11:39:58;8.95;;;3.22;;
23121;SDS011;11730;51.248;22.534;2023-02-01T11:42:27;10.73;;;2.67;;
23121;SDS011;11730;51.248;22.534;2023-02-01T11:47:46;27.20;;;5.03;;
23121;SDS011;11730;51.248;22.534;2023-02-01T11:50:22;14.25;;;4.05;;
23121;SDS011;11730;51.248;22.534;2023-02-01T11:53:01;8.65;;;2.83;;
23121;SDS011;11730;51.248;22.534;2023-02-01T11:55:57;11.20;;;3.70;;
23121;SDS011;11730;51.248;22.534;2023-02-01T12:04:44;6.05;;;3.28;;
23121;SDS011;11730;51.248;22.534;2023-02-01T12:07:28;8.32;;;3.00;;
23121;SDS011;11730;51.248;22.534;2023-02-01T12:18:50;11.52;;;4.30;;
23121;SDS011;11730;51.248;22.534;2023-02-01T12:43:49;11.73;;;3.53;;
23121;SDS011;11730;51.248;22.534;2023-02-01T12:46:27;13.40;;;3.72;;
23121;SDS011;11730;51.248;22.534;2023-02-01T12:51:39;19.48;;;4.82;;
23121;SDS011;11730;51.248;22.534;2023-02-01T12:54:19;19.33;;;5.43;;
23121;SDS011;11730;51.248;22.534;2023-02-01T12:57:06;15.55;;;4.55;;
23121;SDS011;11730;51.248;22.534;2023-02-01T12:59:40;18.33;;;4.93;;
23121;SDS011;11730;51.248;22.534;2023-02-01T13:02:18;23.17;;;9.43;;
23121;SDS011;11730;51.248;22.534;2023-02-01T13:05:27;14.77;;;4.43;;
23121;SDS011;11730;51.248;22.534;2023-02-01T13:08:05;13.07;;;4.10;;
23121;SDS011;11730;51.248;22.534;2023-02-01T13:18:18;6.72;;;3.65;;
23121;SDS011;11730;51.248;22.534;2023-02-01T13:20:51;10.55;;;4.72;;
23121;SDS011;11730;51.248;22.534;2023-02-01T13:23:28;12.93;;;4.20;;
23121;SDS011;11730;51.248;22.534;2023-02-01T13:25:57;10.88;;;3.97;;
23121;SDS011;11730;51.248;22.534;2023-02-01T13:28:30;16.33;;;4.72;;
23121;SDS011;11730;51.248;22.534;2023-02-01T13:39:28;15.35;;;4.47;;
23121;SDS011;11730;51.248;22.534;2023-02-01T13:41:58;14.40;;;4.97;;
23121;SDS011;11730;51.248;22.534;2023-02-01T13:46:57;18.95;;;5.63;;
23121;SDS011;11730;51.248;22.534;2023-02-01T13:49:27;12.38;;;5.22;;
23121;SDS011;11730;51.248;22.534;2023-02-01T13:51:57;12.57;;;4.47;;
23121;SDS011;11730;51.248;22.534;2023-02-01T13:57:05;25.27;;;4.70;;
23121;SDS011;11730;51.248;22.534;2023-02-01T13:59:51;15.43;;;5.35;;
23121;SDS011;11730;51.248;22.534;2023-02-01T14:02:44;16.23;;;5.22;;
23121;SDS011;11730;51.248;22.534;2023-02-01T14:08:10;6.63;;;3.67;;
23121;SDS011;11730;51.248;22.534;2023-02-01T14:10:46;16.55;;;4.82;;
23121;SDS011;11730;51.248;22.534;2023-02-01T14:26:43;14.82;;;6.53;;
23121;SDS011;11730;51.248;22.534;2023-02-01T14:32:11;21.90;;;7.28;;
23121;SDS011;11730;51.248;22.534;2023-02-01T14:34:53;19.10;;;7.45;;
23121;SDS011;11730;51.248;22.534;2023-02-01T14:37:27;13.20;;;7.60;;
23121;SDS011;11730;51.248;22.534;2023-02-01T14:40:02;16.08;;;7.35;;
23121;SDS011;11730;51.248;22.534;2023-02-01T15:00:50;28.98;;;8.80;;
23121;SDS011;11730;51.248;22.534;2023-02-01T15:03:41;24.25;;;8.65;;
23121;SDS011;11730;51.248;22.534;2023-02-01T15:14:32;21.52;;;7.90;;
23121;SDS011;11730;51.248;22.534;2023-02-01T15:19:29;17.85;;;6.18;;
23121;SDS011;11730;51.248;22.534;2023-02-01T15:21:57;26.00;;;8.10;;
23121;SDS011;11730;51.248;22.534;2023-02-01T15:24:25;18.75;;;8.95;;
23121;SDS011;11730;51.248;22.534;2023-02-01T15:26:55;23.50;;;8.05;;
23121;SDS011;11730;51.248;22.534;2023-02-01T15:29:23;26.33;;;7.90;;
23121;SDS011;11730;51.248;22.534;2023-02-01T15:31:58;20.83;;;8.55;;
23121;SDS011;11730;51.248;22.534;2023-02-01T15:34:43;19.13;;;7.75;;
23121;SDS011;11730;51.248;22.534;2023-02-01T15:37:14;31.67;;;9.02;;
23121;SDS011;11730;51.248;22.534;2023-02-01T15:43:02;17.27;;;7.20;;
23121;SDS011;11730;51.248;22.534;2023-02-01T15:45:29;16.67;;;7.15;;
23121;SDS011;11730;51.248;22.534;2023-02-01T15:47:58;16.95;;;7.68;;
23121;SDS011;11730;51.248;22.534;2023-02-01T15:50:26;24.17;;;7.68;;
23121;SDS011;11730;51.248;22.534;2023-02-01T15:52:56;20.90;;;8.10;;
23121;SDS011;11730;51.248;22.534;2023-02-01T15:55:25;14.45;;;6.05;;
23121;SDS011;11730;51.248;22.534;2023-02-01T15:58:07;25.77;;;8.70;;
23121;SDS011;11730;51.248;22.534;2023-02-01T16:00:41;17.10;;;7.32;;
23121;SDS011;11730;51.248;22.534;2023-02-01T16:09:35;21.13;;;8.23;;
23121;SDS011;11730;51.248;22.534;2023-02-01T16:11:46;24.85;;;9.48;;
23121;SDS011;11730;51.248;22.534;2023-02-01T16:14:14;23.65;;;9.57;;
23121;SDS011;11730;51.248;22.534;2023-02-01T16:16:41;22.08;;;8.48;;
23121;SDS011;11730;51.248;22.534;2023-02-01T16:19:08;19.77;;;9.55;;
23121;SDS011;11730;51.248;22.534;2023-02-01T16:21:36;25.00;;;9.90;;
23121;SDS011;11730;51.248;22.534;2023-02-01T16:24:03;20.33;;;9.27;;
23121;SDS011;11730;51.248;22.534;2023-02-01T16:26:32;24.02;;;9.98;;
23121;SDS011;11730;51.248;22.534;2023-02-01T16:29:00;22.45;;;10.07;;
23121;SDS011;11730;51.248;22.534;2023-02-01T16:31:34;22.50;;;10.45;;
23121;SDS011;11730;51.248;22.534;2023-02-01T16:34:03;27.45;;;9.70;;
23121;SDS011;11730;51.248;22.534;2023-02-01T16:36:32;27.35;;;11.10;;
23121;SDS011;11730;51.248;22.534;2023-02-01T16:38:59;20.13;;;9.63;;
23121;SDS011;11730;51.248;22.534;2023-02-01T16:41:28;22.92;;;10.63;;
23121;SDS011;11730;51.248;22.534;2023-02-01T16:43:56;22.70;;;9.93;;
23121;SDS011;11730;51.248;22.534;2023-02-01T16:46:24;24.98;;;11.82;;
23121;SDS011;11730;51.248;22.534;2023-02-01T16:51:24;21.17;;;9.30;;
23121;SDS011;11730;51.248;22.534;2023-02-01T16:53:54;20.98;;;8.13;;
23121;SDS011;11730;51.248;22.534;2023-02-01T16:56:23;22.63;;;8.45;;
23121;SDS011;11730;51.248;22.534;2023-02-01T16:58:55;23.95;;;12.15;;
23121;SDS011;11730;51.248;22.534;2023-02-01T17:01:23;16.17;;;8.90;;
23121;SDS011;11730;51.248;22.534;2023-02-01T17:03:51;22.95;;;10.30;;
23121;SDS011;11730;51.248;22.534;2023-02-01T17:06:22;28.17;;;9.27;;
23121;SDS011;11730;51.248;22.534;2023-02-01T17:08:52;16.40;;;8.57;;
23121;SDS011;11730;51.248;22.534;2023-02-01T17:11:21;16.17;;;9.70;;
23121;SDS011;11730;51.248;22.534;2023-02-01T17:13:48;23.25;;;9.27;;
23121;SDS011;11730;51.248;22.534;2023-02-01T17:18:52;14.48;;;7.07;;
23121;SDS011;11730;51.248;22.534;2023-02-01T17:21:24;16.83;;;7.75;;
23121;SDS011;11730;51.248;22.534;2023-02-01T17:23:53;12.70;;;7.38;;
23121;SDS011;11730;51.248;22.534;2023-02-01T17:26:20;21.77;;;10.13;;
23121;SDS011;11730;51.248;22.534;2023-02-01T17:28:47;22.67;;;10.82;;
23121;SDS011;11730;51.248;22.534;2023-02-01T17:31:15;19.30;;;10.15;;
23121;SDS011;11730;51.248;22.534;2023-02-01T17:33:43;23.90;;;11.10;;
23121;SDS011;11730;51.248;22.534;2023-02-01T17:36:14;24.65;;;9.63;;
23121;SDS011;11730;51.248;22.534;2023-02-01T17:38:42;23.60;;;8.98;;
23121;SDS011;11730;51.248;22.534;2023-02-01T17:41:19;18.50;;;9.00;;
23121;SDS011;11730;51.248;22.534;2023-02-01T17:43:46;20.95;;;9.85;;
23121;SDS011;11730;51.248;22.534;2023-02-01T17:46:15;21.85;;;11.15;;
23121;SDS011;11730;51.248;22.534;2023-02-01T17:48:52;19.17;;;9.50;;
23121;SDS011;11730;51.248;22.534;2023-02-01T17:51:20;22.35;;;9.95;;
23121;SDS011;11730;51.248;22.534;2023-02-01T17:53:50;25.30;;;11.13;;
23121;SDS011;11730;51.248;22.534;2023-02-01T17:56:18;22.60;;;11.05;;
23121;SDS011;11730;51.248;22.534;2023-02-01T17:58:46;29.73;;;11.30;;
23121;SDS011;11730;51.248;22.534;2023-02-01T18:01:23;24.23;;;10.45;;
23121;SDS011;11730;51.248;22.534;2023-02-01T18:03:50;24.73;;;11.90;;
23121;SDS011;11730;51.248;22.534;2023-02-01T18:06:21;26.02;;;12.10;;